New Champion — V7GG2 — position and weather

sailwx.info

Track history (hours):
 
Tides and Currents Weather Stations Pressure Air Temp Water Temp Dewpoint Dewpoint Depression Visibility Wind Speed Wind Dir Waves Ship Positions

New Champion

Last reported at 2017-Mar-28 12:12 UTC. Time now 2017-Mar-29 03:26 UTC.
Position N 21°28' W 017°48'.

Length 228 m; draft 11.4 m.

Type: Ship (hazmat cat A). MMSI: 537985031.

Date/timePositionNaut miles runAvg speedWind from/ knotsBaromVisibWave heightAir tempDewpointWater temp
2017-Mar-28 12:12N 21°28' W 017°48'42012.3
2017-Mar-27 02:12N 14°29' W 018°06'4712.3
2017-Mar-26 22:20N 13°42' W 017°58'1012.0
2017-Mar-26 21:31N 13°33' W 017°56'20212.7
2017-Mar-26 05:33N 10°18' W 017°02'1313.4
2017-Mar-26 04:34N 10°06' W 016°56'1413.6
2017-Mar-26 03:34N 09°54' W 016°50'1313.4
2017-Mar-26 02:33N 09°43' W 016°40'1313.3
2017-Mar-26 01:33N 09°34' W 016°31'1313.1
2017-Mar-26 00:34N 09°26' W 016°21'1312.7
2017-Mar-25 23:33N 09°17' W 016°12'1313.0
2017-Mar-25 22:33N 09°08' W 016°02'1313.1
2017-Mar-25 21:33N 08°58' W 015°53'1313.4
2017-Mar-25 20:33N 08°50' W 015°43'1313.2
2017-Mar-25 19:33N 08°41' W 015°33'1512.9
2017-Mar-25 18:23N 08°30' W 015°22'1113.0
2017-Mar-25 17:30N 08°22' W 015°13'1212.9
2017-Mar-25 16:33N 08°14' W 015°04'1312.7
2017-Mar-25 15:33N 08°05' W 014°55'  
Track history (hours):
 
Tides and Currents Weather Stations Pressure Air Temp Water Temp Dewpoint Dewpoint Depression Visibility Wind Speed Wind Dir Waves Ship Positions

New Champion

Last reported at 2017-Mar-28 12:12 UTC. Time now 2017-Mar-29 03:26 UTC.
Position N 21°28' W 017°48'.

Length 228 m; draft 11.4 m.

Type: Ship (hazmat cat A). MMSI: 537985031.

Date/timePositionNaut miles runAvg speedWind from/ knotsBaromVisibWave heightAir tempDewpointWater temp
2017-Mar-28 12:12N 21°28' W 017°48'42012.3
2017-Mar-27 02:12N 14°29' W 018°06'4712.3
2017-Mar-26 22:20N 13°42' W 017°58'1012.0
2017-Mar-26 21:31N 13°33' W 017°56'20212.7
2017-Mar-26 05:33N 10°18' W 017°02'1313.4
2017-Mar-26 04:34N 10°06' W 016°56'1413.6
2017-Mar-26 03:34N 09°54' W 016°50'1313.4
2017-Mar-26 02:33N 09°43' W 016°40'1313.3
2017-Mar-26 01:33N 09°34' W 016°31'1313.1
2017-Mar-26 00:34N 09°26' W 016°21'1312.7
2017-Mar-25 23:33N 09°17' W 016°12'1313.0
2017-Mar-25 22:33N 09°08' W 016°02'1313.1
2017-Mar-25 21:33N 08°58' W 015°53'1313.4
2017-Mar-25 20:33N 08°50' W 015°43'1313.2
2017-Mar-25 19:33N 08°41' W 015°33'1512.9
2017-Mar-25 18:23N 08°30' W 015°22'1113.0
2017-Mar-25 17:30N 08°22' W 015°13'1212.9
2017-Mar-25 16:33N 08°14' W 015°04'1312.7
2017-Mar-25 15:33N 08°05' W 014°55'  

Dump ship's entire track history